createdAt,value
2018-01-06T00:01:03.855Z,68.60
2018-01-06T00:03:31.411Z,68.70
2018-01-06T00:05:58.991Z,69.10
2018-01-06T00:08:27.328Z,69.10
2018-01-06T00:10:54.884Z,69.10
2018-01-06T00:13:22.797Z,69.10
2018-01-06T00:15:51.108Z,69.20
2018-01-06T00:18:18.673Z,69.10
2018-01-06T00:20:46.264Z,69.20
2018-01-06T00:23:13.798Z,69.10
2018-01-06T00:25:41.388Z,69.20
2018-01-06T00:28:08.935Z,69.40
2018-01-06T00:30:36.561Z,69.50
2018-01-06T00:33:04.140Z,69.50
2018-01-06T00:35:31.674Z,69.50
2018-01-06T00:37:59.239Z,69.40
2018-01-06T00:40:26.769Z,69.50
2018-01-06T00:42:54.473Z,69.50
2018-01-06T00:45:22.875Z,69.70
2018-01-06T00:47:50.445Z,70.00
2018-01-06T00:50:18.019Z,69.90
2018-01-06T00:52:45.577Z,69.60
2018-01-06T00:55:13.108Z,69.80
2018-01-06T00:57:40.668Z,70.20
2018-01-06T01:00:08.295Z,70.00
2018-01-06T01:02:35.854Z,69.90
2018-01-06T01:05:04.044Z,70.00
2018-01-06T01:07:31.596Z,70.00
2018-01-06T01:09:59.179Z,70.40
2018-01-06T01:12:26.797Z,70.40
2018-01-06T01:14:54.365Z,70.00
2018-01-06T01:17:22.659Z,70.10
2018-01-06T01:19:50.273Z,70.10
2018-01-06T01:22:17.820Z,70.00
2018-01-06T01:24:45.387Z,70.10
2018-01-06T01:27:12.926Z,70.70
2018-01-06T01:29:40.485Z,70.80
2018-01-06T01:32:08.099Z,70.70
2018-01-06T01:34:35.654Z,70.50
2018-01-06T01:37:03.204Z,70.30
2018-01-06T01:39:31.548Z,69.80
2018-01-06T01:41:59.102Z,69.80
2018-01-06T01:44:26.643Z,69.50
2018-01-06T01:46:54.200Z,69.80
2018-01-06T01:49:22.713Z,70.20
2018-01-06T01:51:50.240Z,70.40
2018-01-06T01:54:17.817Z,70.30
2018-01-06T01:56:45.404Z,69.80
2018-01-06T01:59:12.928Z,70.10
2018-01-06T02:01:40.520Z,70.50
2018-01-06T02:04:08.279Z,70.80
2018-01-06T02:06:35.875Z,71.10
2018-01-06T02:09:04.193Z,70.90
2018-01-06T02:11:31.743Z,70.80
2018-01-06T02:13:59.353Z,70.60
2018-01-06T02:16:27.659Z,70.10
2018-01-06T02:18:55.290Z,70.00
2018-01-06T02:21:23.519Z,69.70
2018-01-06T02:23:51.135Z,69.40
2018-01-06T02:26:18.673Z,69.00
2018-01-06T02:28:46.699Z,68.90
2018-01-06T02:31:14.905Z,68.80
2018-01-06T02:33:42.457Z,68.30
2018-01-06T02:36:10.073Z,68.10
2018-01-06T02:38:37.605Z,68.00
2018-01-06T02:41:05.128Z,68.00
2018-01-06T02:43:32.698Z,67.80
2018-01-06T02:46:00.243Z,67.90
2018-01-06T02:48:27.822Z,68.20
2018-01-06T02:50:55.366Z,68.20
2018-01-06T02:53:22.928Z,68.20
2018-01-06T02:55:50.446Z,68.20
2018-01-06T02:58:18.003Z,68.50
2018-01-06T03:00:46.377Z,68.50
2018-01-06T03:03:13.965Z,68.40
2018-01-06T03:05:41.570Z,68.40
2018-01-06T03:08:09.168Z,68.60
2018-01-06T03:10:37.517Z,68.50
2018-01-06T03:13:05.999Z,68.50
2018-01-06T03:15:33.538Z,68.40
2018-01-06T03:18:01.120Z,68.40
2018-01-06T03:20:28.640Z,68.30
2018-01-06T03:22:56.837Z,68.40
2018-01-06T03:25:24.361Z,68.30
2018-01-06T03:27:51.975Z,68.30
2018-01-06T03:30:19.781Z,68.10
2018-01-06T03:32:47.313Z,68.10
2018-01-06T03:35:14.923Z,68.00
2018-01-06T03:37:42.511Z,67.90
2018-01-06T03:40:10.038Z,67.70
2018-01-06T03:42:37.607Z,67.60
2018-01-06T03:45:05.848Z,67.40
2018-01-06T03:47:34.153Z,67.10
2018-01-06T03:50:02.469Z,67.00
2018-01-06T03:52:30.318Z,67.10
2018-01-06T03:54:57.878Z,67.00
2018-01-06T03:57:25.446Z,67.00
2018-01-06T03:59:52.981Z,67.10
2018-01-06T04:02:21.527Z,67.30
2018-01-06T04:04:49.153Z,67.50
2018-01-06T04:07:17.469Z,67.70
2018-01-06T04:09:45.044Z,67.70
2018-01-06T04:12:12.597Z,67.50
2018-01-06T04:14:40.155Z,67.40
2018-01-06T04:17:07.791Z,67.60
2018-01-06T04:19:35.315Z,67.80
2018-01-06T04:22:02.921Z,67.50
2018-01-06T04:24:30.482Z,67.00
2018-01-06T04:26:58.074Z,66.70
2018-01-06T04:29:25.599Z,66.70
2018-01-06T04:31:54.207Z,66.60
2018-01-06T04:34:22.615Z,66.50
2018-01-06T04:36:50.170Z,66.30
2018-01-06T04:39:18.518Z,66.30
2018-01-06T04:41:46.102Z,66.40
2018-01-06T04:44:13.727Z,66.50
2018-01-06T04:46:42.051Z,66.60
2018-01-06T04:49:09.639Z,66.60
2018-01-06T04:51:37.221Z,66.50
2018-01-06T04:54:05.558Z,66.70
2018-01-06T04:56:33.120Z,66.70
2018-01-06T04:59:00.701Z,66.80
2018-01-06T05:01:28.270Z,66.80
2018-01-06T05:03:55.805Z,66.80
2018-01-06T05:06:23.336Z,66.80
2018-01-06T05:08:51.024Z,66.90
2018-01-06T05:11:18.549Z,66.80
2018-01-06T05:13:46.147Z,66.90
2018-01-06T05:16:14.450Z,67.00
2018-01-06T05:18:41.994Z,67.00
2018-01-06T05:21:09.607Z,67.00
2018-01-06T05:23:37.169Z,66.90
2018-01-06T05:26:04.707Z,66.90
2018-01-06T05:28:33.059Z,67.00
2018-01-06T05:31:00.612Z,67.00
2018-01-06T05:33:28.158Z,67.00
2018-01-06T05:35:56.490Z,67.00
2018-01-06T05:38:24.032Z,67.00
2018-01-06T05:40:52.410Z,66.90
2018-01-06T05:43:19.998Z,66.90
2018-01-06T05:45:48.349Z,66.90
2018-01-06T05:48:15.938Z,66.90
2018-01-06T05:50:43.486Z,66.90
2018-01-06T05:53:11.062Z,66.60
2018-01-06T05:55:38.633Z,66.70
2018-01-06T05:58:06.217Z,66.80
2018-01-06T06:00:33.740Z,66.80
2018-01-06T06:03:01.361Z,66.80
2018-01-06T06:05:29.699Z,66.90
2018-01-06T06:07:57.292Z,66.90
2018-01-06T06:10:24.862Z,67.00
2018-01-06T06:12:53.038Z,67.20
2018-01-06T06:15:22.008Z,67.60
2018-01-06T06:17:49.724Z,67.50
2018-01-06T06:20:17.271Z,68.10
2018-01-06T06:22:44.842Z,68.30
2018-01-06T06:25:13.264Z,68.50
2018-01-06T06:27:40.832Z,68.80
2018-01-06T06:30:08.564Z,69.10
2018-01-06T06:32:36.137Z,69.50
2018-01-06T06:35:04.975Z,70.00
2018-01-06T06:37:32.609Z,69.90
2018-01-06T06:40:00.172Z,70.30
2018-01-06T06:42:28.491Z,70.30
2018-01-06T06:44:56.029Z,70.30
2018-01-06T06:47:23.692Z,71.10
2018-01-06T06:49:51.248Z,70.90
2018-01-06T06:52:19.630Z,71.20
2018-01-06T06:54:47.184Z,71.20
2018-01-06T06:57:14.815Z,71.00
2018-01-06T06:59:43.199Z,71.00
2018-01-06T07:02:10.792Z,70.50
2018-01-06T07:04:38.344Z,70.00
2018-01-06T07:07:06.347Z,69.70
2018-01-06T07:09:33.944Z,69.30
2018-01-06T07:12:01.515Z,69.00
2018-01-06T07:14:29.692Z,68.60
2018-01-06T07:16:57.340Z,68.20
2018-01-06T07:19:24.908Z,68.60
2018-01-06T07:21:52.494Z,68.90
2018-01-06T07:24:20.304Z,69.10
2018-01-06T07:26:47.913Z,69.80
2018-01-06T07:29:15.472Z,69.80
2018-01-06T07:31:55.936Z,70.00
2018-01-06T07:34:23.673Z,70.00
2018-01-06T07:36:51.259Z,70.00
2018-01-06T07:39:18.812Z,70.10
2018-01-06T07:41:46.394Z,70.30
2018-01-06T07:44:14.726Z,70.10
2018-01-06T07:46:42.328Z,70.10
2018-01-06T07:49:10.640Z,70.30
2018-01-06T07:51:38.172Z,70.30
2018-01-06T07:54:05.762Z,70.30
2018-01-06T07:56:33.414Z,70.40
2018-01-06T07:59:00.947Z,70.40
2018-01-06T08:01:28.497Z,70.30
2018-01-06T08:03:56.091Z,70.00
2018-01-06T08:06:23.625Z,69.90
2018-01-06T08:08:51.206Z,69.90
2018-01-06T08:11:18.763Z,70.00
2018-01-06T08:13:47.202Z,69.80
2018-01-06T08:16:14.757Z,69.70
2018-01-06T08:18:42.342Z,69.80
2018-01-06T08:21:09.960Z,69.60
2018-01-06T08:23:37.489Z,69.60
2018-01-06T08:26:05.058Z,69.40
2018-01-06T08:28:32.634Z,69.40
2018-01-06T08:31:00.217Z,69.20
2018-01-06T08:33:27.853Z,69.10
2018-01-06T08:35:55.416Z,69.20
2018-01-06T08:38:22.991Z,69.20
2018-01-06T08:40:50.576Z,69.10
2018-01-06T08:43:18.149Z,69.10
2018-01-06T08:45:46.490Z,69.00
2018-01-06T08:48:14.051Z,69.00
2018-01-06T08:50:41.625Z,69.10
2018-01-06T08:53:09.189Z,67.90
2018-01-06T08:55:36.764Z,67.70
2018-01-06T08:58:04.341Z,67.60
2018-01-06T09:00:31.884Z,68.00
2018-01-06T09:02:59.400Z,67.90
2018-01-06T09:05:26.985Z,68.10
2018-01-06T09:07:54.566Z,67.90
2018-01-06T09:10:23.001Z,67.80
2018-01-06T09:12:50.574Z,67.70
2018-01-06T09:15:18.181Z,67.80
2018-01-06T09:17:45.723Z,67.90
2018-01-06T09:20:13.755Z,68.00
2018-01-06T09:22:42.023Z,68.20
2018-01-06T09:25:09.598Z,68.00
2018-01-06T09:27:37.171Z,68.00
2018-01-06T09:30:04.815Z,68.10
2018-01-06T09:32:32.378Z,68.10
2018-01-06T09:35:00.873Z,67.90
2018-01-06T09:37:28.432Z,68.00
2018-01-06T09:39:56.939Z,68.00
2018-01-06T09:42:25.772Z,68.00
2018-01-06T09:44:53.903Z,67.90
2018-01-06T09:47:23.192Z,69.20
2018-01-06T09:49:50.741Z,68.50
2018-01-06T09:52:18.296Z,68.50
2018-01-06T09:54:45.941Z,68.60
2018-01-06T09:57:14.507Z,69.10
2018-01-06T09:59:42.025Z,68.30
2018-01-06T10:02:09.575Z,68.20
2018-01-06T10:04:37.159Z,68.20
2018-01-06T10:07:04.765Z,68.10
2018-01-06T10:09:32.324Z,67.80
2018-01-06T10:12:00.653Z,67.80
2018-01-06T10:14:29.005Z,67.30
2018-01-06T10:16:56.718Z,67.30
2018-01-06T10:19:24.320Z,67.20
2018-01-06T10:21:52.004Z,67.00
2018-01-06T10:24:19.537Z,66.40
2018-01-06T10:26:47.151Z,66.10
2018-01-06T10:29:14.725Z,65.90
2018-01-06T10:31:42.303Z,65.60
2018-01-06T10:34:09.976Z,65.20
2018-01-06T10:36:37.543Z,64.80
2018-01-06T10:39:05.126Z,64.80
2018-01-06T10:41:32.663Z,64.80
2018-01-06T10:44:00.276Z,64.70
2018-01-06T10:46:27.855Z,64.60
2018-01-06T10:48:55.519Z,64.60
2018-01-06T10:51:23.056Z,64.60
2018-01-06T10:53:50.647Z,64.50
2018-01-06T10:56:18.195Z,64.40
2018-01-06T10:58:46.480Z,64.40
2018-01-06T11:01:20.459Z,64.30
2018-01-06T11:03:47.998Z,64.30
2018-01-06T11:06:15.576Z,64.20
2018-01-06T11:08:43.882Z,64.20
2018-01-06T11:11:11.424Z,64.20
2018-01-06T11:13:38.996Z,64.30
2018-01-06T11:16:06.588Z,64.50
2018-01-06T11:18:34.147Z,64.60
2018-01-06T11:21:01.686Z,64.80
2018-01-06T11:23:29.270Z,64.80
2018-01-06T11:25:57.095Z,65.00
2018-01-06T11:28:24.700Z,65.00
2018-01-06T11:30:52.751Z,64.80
2018-01-06T11:33:20.371Z,64.80
2018-01-06T11:35:47.952Z,64.80
2018-01-06T11:38:15.485Z,64.80
2018-01-06T11:40:43.054Z,65.00
2018-01-06T11:43:10.664Z,65.10
2018-01-06T11:45:38.267Z,65.20
2018-01-06T11:48:06.644Z,65.30
2018-01-06T11:50:34.180Z,65.30
2018-01-06T11:53:01.796Z,65.50
2018-01-06T11:55:29.377Z,65.80
2018-01-06T11:57:56.974Z,65.80
2018-01-06T12:00:24.513Z,65.80
2018-01-06T12:02:52.164Z,66.00
2018-01-06T12:05:20.333Z,66.80
2018-01-06T12:07:49.602Z,66.20
2018-01-06T12:10:18.776Z,66.20
2018-01-06T12:12:49.453Z,66.60
2018-01-06T12:15:18.308Z,66.60
2018-01-06T12:17:46.223Z,66.80
2018-01-06T12:20:14.231Z,66.90
2018-01-06T12:22:43.415Z,67.00
2018-01-06T12:25:11.560Z,66.90
2018-01-06T12:27:39.975Z,67.20
2018-01-06T12:30:09.768Z,67.30
2018-01-06T12:32:38.085Z,67.30
2018-01-06T12:35:07.415Z,67.60
2018-01-06T12:37:36.834Z,67.50
2018-01-06T12:40:05.559Z,67.70
2018-01-06T12:42:33.944Z,67.70
2018-01-06T12:45:05.338Z,67.90
2018-01-06T12:47:33.372Z,68.00
2018-01-06T12:50:01.556Z,68.10
2018-01-06T12:52:29.719Z,68.30
2018-01-06T12:54:58.566Z,68.40
2018-01-06T12:57:26.166Z,68.40
2018-01-06T12:59:54.328Z,68.50
2018-01-06T13:02:21.933Z,68.60
2018-01-06T13:04:49.527Z,68.50
2018-01-06T13:07:17.098Z,68.70
2018-01-06T13:09:44.765Z,68.80
2018-01-06T13:12:12.341Z,68.80
2018-01-06T13:14:39.905Z,68.80
2018-01-06T13:17:08.290Z,68.70
2018-01-06T13:19:35.890Z,68.60
2018-01-06T13:22:03.505Z,68.80
2018-01-06T13:24:31.878Z,69.00
2018-01-06T13:26:59.462Z,69.00
2018-01-06T13:29:28.460Z,69.00
2018-01-06T13:31:56.025Z,69.00
2018-01-06T13:34:23.568Z,68.80
2018-01-06T13:36:51.957Z,68.90
2018-01-06T13:39:19.515Z,68.90
2018-01-06T13:41:47.117Z,68.80
2018-01-06T13:44:14.712Z,68.90
2018-01-06T13:46:42.329Z,69.10
2018-01-06T13:49:09.977Z,69.00
2018-01-06T13:51:37.535Z,68.90
2018-01-06T13:54:05.086Z,68.90
2018-01-06T13:56:32.709Z,69.10
2018-01-06T13:59:00.306Z,69.00
2018-01-06T14:01:27.836Z,69.10
2018-01-06T14:03:55.688Z,69.20
2018-01-06T14:06:23.308Z,69.10
2018-01-06T14:08:50.884Z,69.10
2018-01-06T14:11:18.508Z,69.10
2018-01-06T14:13:46.897Z,69.00
2018-01-06T14:16:14.469Z,69.00
2018-01-06T14:18:42.053Z,69.00
2018-01-06T14:21:09.651Z,69.10
2018-01-06T14:23:37.380Z,69.10
2018-01-06T14:26:04.945Z,69.30
2018-01-06T14:28:32.569Z,69.30
2018-01-06T14:31:00.193Z,69.40
2018-01-06T14:33:28.516Z,69.30
2018-01-06T14:35:56.095Z,69.30
2018-01-06T14:38:23.683Z,69.20
2018-01-06T14:40:51.289Z,69.30
2018-01-06T14:43:18.838Z,69.30
2018-01-06T14:45:46.414Z,69.30
2018-01-06T14:48:14.070Z,69.50
2018-01-06T14:50:42.090Z,69.40
2018-01-06T14:53:10.004Z,69.50
2018-01-06T14:55:38.687Z,69.70
2018-01-06T14:58:07.172Z,69.80
2018-01-06T15:00:34.707Z,69.90
2018-01-06T15:03:02.362Z,69.90
2018-01-06T15:05:30.689Z,70.10
2018-01-06T15:07:58.217Z,70.00
2018-01-06T15:10:26.565Z,70.00
2018-01-06T15:12:54.098Z,70.00
2018-01-06T15:15:22.261Z,70.20
2018-01-06T15:17:49.863Z,70.10
2018-01-06T15:20:17.425Z,70.80
2018-01-06T15:22:45.020Z,71.00
2018-01-06T15:25:12.596Z,71.20
2018-01-06T15:27:40.148Z,71.30
2018-01-06T15:30:08.344Z,71.40
2018-01-06T15:32:35.897Z,71.50
2018-01-06T15:35:04.230Z,72.20
2018-01-06T15:37:32.563Z,72.50
2018-01-06T15:40:00.165Z,72.50
2018-01-06T15:42:28.506Z,74.20
2018-01-06T15:44:56.138Z,74.20
2018-01-06T15:47:23.726Z,73.00
2018-01-06T15:49:51.279Z,72.90
2018-01-06T15:52:18.887Z,74.20
2018-01-06T15:54:47.276Z,72.90
2018-01-06T15:57:14.810Z,72.90
2018-01-06T15:59:42.415Z,72.80
2018-01-06T16:02:09.964Z,72.60
2018-01-06T16:04:37.606Z,72.50
2018-01-06T16:07:05.178Z,72.50
2018-01-06T16:09:33.469Z,74.30
2018-01-06T16:12:01.079Z,74.30
2018-01-06T16:14:29.239Z,74.40
2018-01-06T16:16:56.917Z,75.10
2018-01-06T16:19:24.480Z,75.70
2018-01-06T16:21:53.332Z,77.00
2018-01-06T16:24:22.514Z,76.00
2018-01-06T16:26:50.625Z,75.80
2018-01-06T16:29:18.215Z,75.50
2018-01-06T16:31:45.811Z,75.30
2018-01-06T16:34:13.353Z,75.10
2018-01-06T16:36:40.913Z,75.10
2018-01-06T16:39:09.340Z,75.80
2018-01-06T16:41:36.943Z,75.80
2018-01-06T16:44:05.300Z,75.80
2018-01-06T16:46:32.849Z,75.70
2018-01-06T16:49:00.411Z,75.60
2018-01-06T16:51:27.956Z,76.10
2018-01-06T16:53:55.624Z,76.40
2018-01-06T16:56:23.180Z,76.30
2018-01-06T16:58:51.497Z,76.10
2018-01-06T17:01:19.826Z,75.70
2018-01-06T17:03:47.388Z,75.60
2018-01-06T17:06:14.982Z,75.50
2018-01-06T17:08:42.554Z,76.00
2018-01-06T17:11:10.892Z,76.30
2018-01-06T17:13:38.434Z,76.30
2018-01-06T17:16:06.013Z,75.90
2018-01-06T17:18:34.470Z,76.50
2018-01-06T17:21:02.084Z,77.00
2018-01-06T17:23:29.656Z,77.10
2018-01-06T17:25:57.289Z,77.20
2018-01-06T17:28:24.888Z,76.90
2018-01-06T17:30:53.211Z,76.90
2018-01-06T17:33:21.583Z,76.90
2018-01-06T17:35:49.184Z,77.20
2018-01-06T17:38:16.834Z,77.30
2018-01-06T17:40:44.391Z,77.40
2018-01-06T18:00:28.214Z,75.80
2018-01-06T18:02:56.340Z,75.80
2018-01-06T18:05:24.016Z,75.80
2018-01-06T18:07:51.636Z,75.50
2018-01-06T18:10:19.250Z,75.70
2018-01-06T18:12:46.809Z,75.90
2018-01-06T18:15:14.984Z,75.80
2018-01-06T18:17:42.591Z,75.60
2018-01-06T18:20:10.958Z,74.30
2018-01-06T18:22:38.543Z,75.50
2018-01-06T18:25:07.006Z,76.40
2018-01-06T18:27:34.605Z,76.20
2018-01-06T18:30:02.179Z,75.90
2018-01-06T18:32:30.519Z,74.80
2018-01-06T18:34:58.082Z,75.80
2018-01-06T18:37:25.727Z,74.70
2018-01-06T18:39:53.326Z,74.60
2018-01-06T18:42:21.366Z,74.50
2018-01-06T18:44:48.927Z,74.20
2018-01-06T18:47:16.455Z,74.10
2018-01-06T18:49:44.048Z,73.80
2018-01-06T18:52:11.644Z,73.60
2018-01-06T18:54:39.968Z,73.80
2018-01-06T18:57:08.314Z,73.80
2018-01-06T18:59:35.957Z,73.70
2018-01-06T19:02:03.509Z,73.70
2018-01-06T19:04:31.852Z,73.80
2018-01-06T19:07:00.062Z,73.50
2018-01-06T19:09:27.659Z,73.50
2018-01-06T19:11:55.874Z,73.80
2018-01-06T19:14:23.475Z,73.50
2018-01-06T19:16:51.171Z,73.80
2018-01-06T19:19:18.934Z,74.20
2018-01-06T19:21:46.529Z,74.60
2018-01-06T19:24:14.156Z,74.50
2018-01-06T19:26:41.734Z,74.40
2018-01-06T19:29:09.504Z,74.40
2018-01-06T19:31:37.105Z,74.30
2018-01-06T19:34:04.672Z,74.60
2018-01-06T19:36:32.200Z,74.60
2018-01-06T19:38:59.779Z,74.60
2018-01-06T19:41:27.339Z,74.90
2018-01-06T19:43:55.682Z,74.70
2018-01-06T19:46:23.292Z,74.70
2018-01-06T19:48:50.872Z,74.80
2018-01-06T19:51:19.314Z,74.60
2018-01-06T19:53:46.908Z,74.40
2018-01-06T19:56:14.460Z,74.30
2018-01-06T19:58:42.103Z,74.30
2018-01-06T20:01:10.431Z,74.00
2018-01-06T20:03:37.978Z,73.90
2018-01-06T20:06:05.570Z,73.90
2018-01-06T20:08:33.118Z,74.10
2018-01-06T20:11:00.800Z,74.00
2018-01-06T20:13:28.339Z,73.70
2018-01-06T20:15:55.957Z,73.70
2018-01-06T20:18:24.588Z,74.00
2018-01-06T20:20:52.148Z,74.00
2018-01-06T20:23:19.742Z,73.90
2018-01-06T20:25:47.324Z,73.80
2018-01-06T20:28:15.197Z,73.80
2018-01-06T20:30:42.768Z,73.70
2018-01-06T20:33:10.359Z,73.60
2018-01-06T20:35:38.433Z,73.60
2018-01-06T20:38:06.051Z,73.40
2018-01-06T20:40:33.761Z,73.20
2018-01-06T20:43:01.442Z,73.10
2018-01-06T20:45:29.177Z,73.10
2018-01-06T20:47:56.844Z,73.10
2018-01-06T20:50:24.459Z,73.00
2018-01-06T20:52:52.050Z,73.10
2018-01-06T20:55:19.861Z,73.60
2018-01-06T20:57:47.665Z,73.50
2018-01-06T21:00:15.999Z,73.40
2018-01-06T21:02:44.485Z,73.50
2018-01-06T21:05:13.025Z,74.00
2018-01-06T21:07:40.640Z,73.90
2018-01-06T21:10:08.985Z,73.50
2018-01-06T21:12:36.579Z,73.40
2018-01-06T21:15:05.072Z,75.00
2018-01-06T21:17:33.588Z,75.40
2018-01-06T21:20:01.332Z,75.30
2018-01-06T21:22:28.957Z,75.20
2018-01-06T21:24:56.569Z,75.60
2018-01-06T21:27:24.383Z,76.30
2018-01-06T21:29:51.951Z,76.20
2018-01-06T21:32:19.573Z,76.10
2018-01-06T21:34:47.124Z,76.50
2018-01-06T21:37:14.706Z,76.60
2018-01-06T21:39:42.243Z,76.70
2018-01-06T21:42:09.894Z,76.80
2018-01-06T21:44:37.476Z,76.60
2018-01-06T21:47:05.127Z,76.70
2018-01-06T21:49:32.740Z,76.40
2018-01-06T21:52:01.045Z,76.10
2018-01-06T21:54:28.628Z,76.00
2018-01-06T21:56:56.178Z,76.60
2018-01-06T21:59:23.751Z,76.60
2018-01-06T22:01:51.355Z,76.50
2018-01-06T22:04:19.735Z,76.30
2018-01-06T22:06:47.302Z,76.30
2018-01-06T22:09:15.617Z,75.80
2018-01-06T22:11:43.231Z,75.80
2018-01-06T22:14:10.802Z,75.60
2018-01-06T22:16:38.431Z,75.60
2018-01-06T22:19:05.967Z,75.30
2018-01-06T22:21:33.527Z,75.20
2018-01-06T22:24:01.066Z,75.20
2018-01-06T22:26:28.590Z,75.00
2018-01-06T22:28:56.179Z,74.80
2018-01-06T22:31:24.224Z,75.10
2018-01-06T22:33:51.743Z,74.80
2018-01-06T22:36:19.318Z,74.50
2018-01-06T22:38:46.895Z,74.60
2018-01-06T22:41:15.247Z,74.10
2018-01-06T22:43:42.781Z,73.90
2018-01-06T22:46:10.349Z,73.90
2018-01-06T22:48:37.968Z,75.00
2018-01-06T22:51:06.591Z,74.30
2018-01-06T22:53:34.257Z,74.30
2018-01-06T22:56:01.842Z,74.20
2018-01-06T22:58:29.413Z,74.20
2018-01-06T23:00:57.149Z,74.00
2018-01-06T23:03:24.702Z,73.80
2018-01-06T23:05:52.316Z,73.50
2018-01-06T23:08:20.636Z,72.90
2018-01-06T23:10:48.245Z,72.80
2018-01-06T23:13:15.895Z,72.50
2018-01-06T23:15:43.494Z,72.70
2018-01-06T23:18:11.065Z,72.40
2018-01-06T23:20:38.712Z,73.20
2018-01-06T23:23:07.111Z,74.20
2018-01-06T23:25:34.669Z,74.10
2018-01-06T23:28:03.588Z,73.90
2018-01-06T23:30:33.496Z,74.20
2018-01-06T23:33:02.633Z,75.00
2018-01-06T23:35:30.251Z,75.00
2018-01-06T23:37:57.838Z,74.80
2018-01-06T23:40:25.524Z,75.00
2018-01-06T23:42:55.537Z,75.50
2018-01-06T23:45:23.476Z,75.50
2018-01-06T23:47:55.146Z,76.10
2018-01-06T23:50:24.388Z,76.00
2018-01-06T23:52:53.695Z,76.10
2018-01-06T23:55:23.358Z,76.10
2018-01-06T23:57:52.944Z,76.00
